Time;durP1;ratioP1;P1;durP2;ratioP2;P2;SDS_P1;SDS_P2;PMS_P1;PMS_P2;Temp;Humidity;BMP_temperature;BMP_pressure;BME280_temperature;BME280_humidity;BME280_pressure;Samples;Min_cycle;Max_cycle;Signal;HPM_P1;HPM_P2
2023/09/29 00:01:22;;;;;;;19.50;5.75;;;;;;;;;;5030667;28;20018;-73
2023/09/29 00:03:48;;;;;;;9.47;5.07;;;;;;;;;;5033185;28;20029;-73
2023/09/29 00:06:14;;;;;;;8.43;4.97;;;;;;;;;;5032690;28;20288;-73
2023/09/29 00:08:39;;;;;;;15.30;4.88;;;;;;;;;;5024715;28;20104;-73
2023/09/29 00:11:04;;;;;;;12.30;4.65;;;;;;;;;;5032085;28;20026;-73
2023/09/29 00:13:29;;;;;;;11.35;5.00;;;;;;;;;;5030178;28;20022;-73
2023/09/29 00:15:55;;;;;;;11.30;5.07;;;;;;;;;;5029559;28;20063;-73
2023/09/29 00:18:23;;;;;;;9.43;4.93;;;;;;;;;;5031245;28;20030;-73
2023/09/29 00:20:48;;;;;;;10.85;4.43;;;;;;;;;;5030940;28;20287;-73
2023/09/29 00:23:14;;;;;;;10.77;5.55;;;;;;;;;;5031110;28;20048;-73
2023/09/29 00:25:40;;;;;;;12.02;5.35;;;;;;;;;;5024309;28;20018;-73
2023/09/29 00:28:05;;;;;;;8.43;4.20;;;;;;;;;;5030463;28;20109;-73
2023/09/29 00:30:31;;;;;;;10.30;4.78;;;;;;;;;;5030232;28;20268;-73
2023/09/29 00:32:56;;;;;;;10.18;5.05;;;;;;;;;;5032148;28;20083;-73
2023/09/29 00:35:24;;;;;;;7.10;4.67;;;;;;;;;;5032901;28;20056;-73
2023/09/29 00:37:51;;;;;;;12.20;4.78;;;;;;;;;;5031571;28;20472;-73
2023/09/29 00:40:16;;;;;;;9.30;4.25;;;;;;;;;;5029112;28;20029;-73
2023/09/29 00:42:42;;;;;;;10.83;4.10;;;;;;;;;;5030257;28;20381;-73
2023/09/29 00:45:08;;;;;;;10.40;4.70;;;;;;;;;;5029585;28;20275;-73
2023/09/29 00:47:33;;;;;;;14.27;5.32;;;;;;;;;;5030526;28;20019;-73
2023/09/29 00:49:58;;;;;;;9.15;5.07;;;;;;;;;;5030673;28;20021;-73
2023/09/29 00:52:24;;;;;;;12.30;4.60;;;;;;;;;;5030439;28;20021;-73
2023/09/29 00:54:51;;;;;;;9.05;4.50;;;;;;;;;;5028554;28;20021;-73
2023/09/29 00:57:16;;;;;;;7.82;4.20;;;;;;;;;;5031255;28;20087;-73
2023/09/29 00:59:42;;;;;;;9.40;4.45;;;;;;;;;;5030517;28;20472;-73
2023/09/29 01:02:10;;;;;;;9.93;4.40;;;;;;;;;;5030406;28;20029;-73
2023/09/29 01:04:35;;;;;;;10.02;4.45;;;;;;;;;;5029157;28;20072;-73
2023/09/29 01:07:07;;;;;;;10.23;4.55;;;;;;;;;;5026997;28;20068;-73
2023/09/29 01:09:32;;;;;;;10.50;4.43;;;;;;;;;;5029410;28;20032;-73
2023/09/29 01:11:59;;;;;;;8.30;4.10;;;;;;;;;;5029465;28;20037;-73
2023/09/29 01:14:25;;;;;;;15.00;4.43;;;;;;;;;;5029944;28;20366;-73
2023/09/29 01:16:50;;;;;;;9.20;3.85;;;;;;;;;;5030860;28;20447;-73
2023/09/29 01:19:17;;;;;;;9.50;4.13;;;;;;;;;;5029320;28;20516;-73
2023/09/29 01:21:46;;;;;;;9.75;4.10;;;;;;;;;;5030260;28;20256;-73
2023/09/29 01:24:11;;;;;;;8.68;3.97;;;;;;;;;;5028551;28;20024;-73
2023/09/29 01:26:36;;;;;;;10.87;4.00;;;;;;;;;;5028359;28;20022;-73
2023/09/29 01:29:01;;;;;;;7.00;3.70;;;;;;;;;;5030474;28;20248;-73
2023/09/29 01:31:27;;;;;;;6.57;3.80;;;;;;;;;;5026086;28;20029;-73
2023/09/29 01:33:52;;;;;;;8.80;3.90;;;;;;;;;;5026904;28;20037;-73
2023/09/29 01:36:17;;;;;;;10.83;4.10;;;;;;;;;;5029499;28;20319;-73
2023/09/29 01:38:43;;;;;;;12.57;3.63;;;;;;;;;;5026213;28;20806;-73
2023/09/29 01:41:08;;;;;;;9.50;4.55;;;;;;;;;;5030064;28;20248;-73
2023/09/29 01:43:34;;;;;;;5.88;3.33;;;;;;;;;;5028966;28;20492;-73
2023/09/29 01:46:00;;;;;;;8.90;3.38;;;;;;;;;;5028919;28;20408;-73
2023/09/29 01:48:25;;;;;;;7.20;3.28;;;;;;;;;;5028600;28;20029;-73
2023/09/29 01:50:50;;;;;;;5.73;3.53;;;;;;;;;;5030065;28;20040;-73
2023/09/29 01:53:15;;;;;;;12.33;3.83;;;;;;;;;;5033024;28;20056;-73
2023/09/29 01:55:41;;;;;;;9.93;3.60;;;;;;;;;;5034818;28;20260;-73
2023/09/29 01:58:06;;;;;;;8.30;3.30;;;;;;;;;;5032836;28;20191;-73
2023/09/29 02:00:31;;;;;;;5.77;3.37;;;;;;;;;;5034999;28;20907;-73
2023/09/29 02:02:56;;;;;;;8.17;3.50;;;;;;;;;;5030150;28;20284;-73
2023/09/29 02:05:23;;;;;;;11.88;3.85;;;;;;;;;;5030374;28;20037;-73
2023/09/29 02:07:51;;;;;;;8.40;3.58;;;;;;;;;;5031174;28;20021;-73
2023/09/29 02:10:19;;;;;;;7.10;3.03;;;;;;;;;;5032545;28;20087;-73
2023/09/29 02:12:46;;;;;;;7.53;3.25;;;;;;;;;;5032318;28;20056;-73
2023/09/29 02:15:12;;;;;;;10.05;3.10;;;;;;;;;;5033324;28;20017;-73
2023/09/29 02:17:38;;;;;;;7.30;3.28;;;;;;;;;;5032110;28;20029;-73
2023/09/29 02:20:17;;;;;;;6.63;3.20;;;;;;;;;;5032427;28;20014;-73
2023/09/29 02:22:43;;;;;;;6.45;3.72;;;;;;;;;;5030914;28;20318;-73
2023/09/29 02:25:14;;;;;;;7.47;3.03;;;;;;;;;;5034123;28;20017;-73
2023/09/29 02:27:40;;;;;;;8.13;3.30;;;;;;;;;;5033451;28;20248;-73
2023/09/29 02:30:08;;;;;;;7.13;3.25;;;;;;;;;;5032833;28;20481;-73
2023/09/29 02:32:34;;;;;;;5.78;3.38;;;;;;;;;;5033381;28;20024;-73
2023/09/29 02:34:59;;;;;;;9.95;3.28;;;;;;;;;;5030549;28;20021;-73
2023/09/29 02:37:25;;;;;;;9.02;3.13;;;;;;;;;;5032488;28;20031;-73
2023/09/29 02:39:50;;;;;;;8.98;3.30;;;;;;;;;;5032588;28;20017;-73
2023/09/29 02:42:15;;;;;;;9.23;3.17;;;;;;;;;;5031675;28;20101;-73
2023/09/29 02:44:41;;;;;;;8.20;3.83;;;;;;;;;;5032055;28;20017;-73
2023/09/29 02:47:06;;;;;;;9.63;3.50;;;;;;;;;;5032549;28;20075;-73
2023/09/29 02:49:33;;;;;;;12.93;3.83;;;;;;;;;;5032590;28;20283;-73
2023/09/29 02:51:58;;;;;;;10.38;3.35;;;;;;;;;;5027447;28;20033;-73
2023/09/29 02:54:25;;;;;;;5.50;3.50;;;;;;;;;;5032426;28;20032;-73
2023/09/29 02:56:50;;;;;;;10.27;3.10;;;;;;;;;;5032292;28;20041;-73
2023/09/29 02:59:16;;;;;;;4.82;2.97;;;;;;;;;;5032182;28;20464;-73
2023/09/29 03:01:44;;;;;;;7.68;3.15;;;;;;;;;;5031369;28;20017;-73
2023/09/29 03:04:09;;;;;;;6.85;3.67;;;;;;;;;;5031442;28;20017;-73
2023/09/29 03:06:35;;;;;;;5.85;3.10;;;;;;;;;;5032688;28;20063;-73
2023/09/29 03:09:01;;;;;;;6.00;3.08;;;;;;;;;;5032309;28;20025;-73
2023/09/29 03:11:26;;;;;;;10.88;3.15;;;;;;;;;;5030684;28;20602;-73
2023/09/29 03:13:54;;;;;;;6.70;3.20;;;;;;;;;;5025997;28;20063;-73
2023/09/29 03:16:25;;;;;;;10.25;3.75;;;;;;;;;;5030257;28;20626;-73
2023/09/29 03:18:51;;;;;;;6.53;3.35;;;;;;;;;;5032108;28;20435;-73
2023/09/29 03:21:16;;;;;;;4.07;2.60;;;;;;;;;;5032138;28;20030;-73
2023/09/29 03:23:42;;;;;;;9.57;3.70;;;;;;;;;;5032129;28;20280;-73
2023/09/29 03:26:09;;;;;;;7.30;3.28;;;;;;;;;;5031455;28;20025;-73
2023/09/29 03:28:38;;;;;;;4.82;3.30;;;;;;;;;;5031775;28;20657;-73
2023/09/29 03:31:06;;;;;;;4.45;3.03;;;;;;;;;;5026898;28;20029;-73
2023/09/29 03:33:32;;;;;;;5.65;3.22;;;;;;;;;;5030852;28;20079;-73
2023/09/29 03:35:57;;;;;;;8.48;3.13;;;;;;;;;;5032206;28;20021;-73
2023/09/29 03:38:25;;;;;;;7.38;3.20;;;;;;;;;;5031566;28;20361;-73
2023/09/29 03:40:50;;;;;;;5.85;3.25;;;;;;;;;;5031559;28;20044;-73
2023/09/29 03:43:16;;;;;;;5.90;3.08;;;;;;;;;;5031082;28;20473;-73
2023/09/29 03:45:41;;;;;;;13.90;3.90;;;;;;;;;;5028658;28;20022;-73
2023/09/29 03:48:06;;;;;;;8.10;3.53;;;;;;;;;;5031726;28;20021;-73
2023/09/29 03:50:32;;;;;;;5.63;2.63;;;;;;;;;;5030876;28;20068;-73
2023/09/29 03:52:58;;;;;;;6.22;3.55;;;;;;;;;;5029730;28;20276;-73
2023/09/29 03:55:24;;;;;;;12.18;3.00;;;;;;;;;;5031638;28;20045;-73
2023/09/29 03:57:49;;;;;;;7.97;3.25;;;;;;;;;;5029323;28;20499;-73
2023/09/29 04:00:18;;;;;;;5.68;2.75;;;;;;;;;;5026793;28;20041;-73
2023/09/29 04:02:43;;;;;;;7.60;3.55;;;;;;;;;;5030379;28;20013;-73
2023/09/29 04:05:09;;;;;;;7.28;3.60;;;;;;;;;;5030231;28;20021;-73
2023/09/29 04:07:36;;;;;;;8.63;3.50;;;;;;;;;;5029804;28;20107;-73
2023/09/29 04:10:01;;;;;;;7.10;3.30;;;;;;;;;;5030103;28;20484;-73
2023/09/29 04:12:26;;;;;;;15.82;3.53;;;;;;;;;;5023472;28;20028;-73
2023/09/29 04:14:52;;;;;;;21.90;3.53;;;;;;;;;;5028841;28;20096;-73
2023/09/29 04:17:18;;;;;;;8.93;3.35;;;;;;;;;;5029935;28;20291;-73
2023/09/29 04:19:43;;;;;;;5.18;3.30;;;;;;;;;;5031201;28;20088;-73
2023/09/29 04:22:09;;;;;;;8.95;3.60;;;;;;;;;;5028617;28;20030;-73
2023/09/29 04:24:34;;;;;;;7.30;3.80;;;;;;;;;;5037000;28;20055;-73
2023/09/29 04:26:59;;;;;;;8.20;3.25;;;;;;;;;;5027155;28;20307;-73
2023/09/29 04:29:24;;;;;;;8.25;3.03;;;;;;;;;;5037253;28;20075;-73
2023/09/29 04:31:49;;;;;;;7.87;3.67;;;;;;;;;;5039306;28;20032;-73
2023/09/29 04:34:15;;;;;;;9.15;3.30;;;;;;;;;;5050552;28;20266;-73
2023/09/29 04:36:42;;;;;;;4.68;3.10;;;;;;;;;;5030697;28;20432;-73
2023/09/29 04:39:07;;;;;;;6.97;3.85;;;;;;;;;;5028745;28;20029;-73
2023/09/29 04:41:32;;;;;;;5.67;3.13;;;;;;;;;;5026247;28;20022;-73
2023/09/29 04:43:59;;;;;;;9.05;3.80;;;;;;;;;;5036734;28;20264;-73
2023/09/29 04:46:25;;;;;;;6.13;3.53;;;;;;;;;;5038708;28;20441;-73
2023/09/29 04:48:53;;;;;;;5.82;2.42;;;;;;;;;;5028554;28;20053;-73
2023/09/29 04:51:18;;;;;;;6.50;3.25;;;;;;;;;;5029588;28;20063;-73
2023/09/29 04:53:43;;;;;;;11.05;3.85;;;;;;;;;;5042652;28;20480;-73
2023/09/29 04:56:08;;;;;;;11.27;3.73;;;;;;;;;;5029587;28;20527;-73
2023/09/29 04:58:33;;;;;;;6.33;3.27;;;;;;;;;;5029165;28;20044;-73
2023/09/29 05:00:59;;;;;;;5.35;3.38;;;;;;;;;;5037305;28;20279;-73
2023/09/29 05:03:24;;;;;;;12.07;3.23;;;;;;;;;;5047802;28;20013;-73
2023/09/29 05:05:49;;;;;;;7.95;2.70;;;;;;;;;;5041193;28;20270;-73
2023/09/29 05:08:14;;;;;;;10.50;3.57;;;;;;;;;;5041462;28;20028;-73
2023/09/29 05:10:40;;;;;;;9.55;3.08;;;;;;;;;;5030434;28;20272;-73
2023/09/29 05:13:05;;;;;;;7.90;3.20;;;;;;;;;;5022386;28;20385;-73
2023/09/29 05:15:32;;;;;;;9.47;3.40;;;;;;;;;;5038739;28;20087;-73
2023/09/29 05:17:57;;;;;;;13.27;3.35;;;;;;;;;;5035560;28;20360;-73
2023/09/29 05:20:23;;;;;;;7.70;3.17;;;;;;;;;;5028816;28;20022;-73
2023/09/29 05:22:48;;;;;;;11.23;3.10;;;;;;;;;;5019475;28;20036;-73
2023/09/29 05:25:14;;;;;;;9.37;4.20;;;;;;;;;;5030782;28;20377;-73
2023/09/29 05:27:39;;;;;;;8.23;2.92;;;;;;;;;;5028627;28;20680;-73
2023/09/29 05:30:04;;;;;;;5.88;2.95;;;;;;;;;;5033938;28;20021;-73
2023/09/29 05:32:30;;;;;;;8.27;3.25;;;;;;;;;;5032758;28;20057;-73
2023/09/29 05:34:55;;;;;;;15.90;3.03;;;;;;;;;;5020653;28;20029;-73
2023/09/29 05:37:21;;;;;;;11.10;3.70;;;;;;;;;;5017152;28;20291;-73
2023/09/29 05:39:47;;;;;;;5.30;2.78;;;;;;;;;;5022986;28;20013;-73
2023/09/29 05:42:12;;;;;;;4.57;2.03;;;;;;;;;;5023589;28;20018;-73
2023/09/29 05:44:37;;;;;;;6.40;3.30;;;;;;;;;;5021160;28;20025;-73
2023/09/29 05:47:03;;;;;;;5.30;2.90;;;;;;;;;;5019921;28;20259;-73
2023/09/29 05:49:28;;;;;;;5.03;3.00;;;;;;;;;;5017875;28;20807;-73
2023/09/29 05:51:53;;;;;;;3.95;1.85;;;;;;;;;;5021064;28;20061;-73
2023/09/29 05:54:18;;;;;;;5.30;2.60;;;;;;;;;;5023875;28;20013;-73
2023/09/29 05:56:44;;;;;;;5.97;2.83;;;;;;;;;;5022045;28;20284;-73
2023/09/29 05:59:09;;;;;;;6.50;2.75;;;;;;;;;;5022030;28;20763;-73
2023/09/29 06:01:34;;;;;;;7.23;3.00;;;;;;;;;;5019110;28;20026;-73
2023/09/29 06:03:59;;;;;;;11.73;3.17;;;;;;;;;;5020550;28;20276;-73
2023/09/29 06:06:25;;;;;;;4.38;2.10;;;;;;;;;;5015053;28;20037;-73
2023/09/29 06:08:50;;;;;;;8.50;2.97;;;;;;;;;;5018896;28;20384;-73
2023/09/29 06:11:15;;;;;;;6.50;3.50;;;;;;;;;;5014950;28;20291;-73
2023/09/29 06:13:42;;;;;;;12.93;3.53;;;;;;;;;;5019429;28;20049;-73
2023/09/29 06:16:07;;;;;;;5.82;2.95;;;;;;;;;;5016788;28;20080;-73
2023/09/29 06:18:32;;;;;;;5.70;2.72;;;;;;;;;;5016725;28;20489;-73
2023/09/29 06:20:58;;;;;;;9.43;1.92;;;;;;;;;;5017631;28;20032;-73
2023/09/29 06:23:23;;;;;;;4.97;2.30;;;;;;;;;;5017762;28;20033;-73
2023/09/29 06:25:55;;;;;;;4.78;2.63;;;;;;;;;;5017449;28;20040;-73
2023/09/29 06:28:20;;;;;;;12.35;2.92;;;;;;;;;;5024910;28;20055;-73
2023/09/29 06:30:46;;;;;;;4.50;2.40;;;;;;;;;;5026762;28;20605;-73
2023/09/29 06:33:11;;;;;;;5.53;3.00;;;;;;;;;;5023713;28;20025;-73
2023/09/29 06:35:36;;;;;;;5.93;2.80;;;;;;;;;;5025748;28;20774;-73
2023/09/29 06:38:01;;;;;;;3.95;1.90;;;;;;;;;;5029023;28;20033;-73
2023/09/29 06:40:27;;;;;;;7.73;2.30;;;;;;;;;;5028213;28;20148;-73
2023/09/29 06:42:52;;;;;;;8.60;2.78;;;;;;;;;;5029669;28;20300;-73
2023/09/29 06:45:17;;;;;;;6.20;2.67;;;;;;;;;;5028670;28;20048;-73
2023/09/29 06:47:42;;;;;;;4.63;2.20;;;;;;;;;;5021729;28;20272;-73
2023/09/29 06:50:10;;;;;;;6.47;2.60;;;;;;;;;;5029832;28;20284;-73
2023/09/29 06:52:36;;;;;;;7.85;2.75;;;;;;;;;;5026987;28;20112;-73
2023/09/29 06:55:01;;;;;;;7.43;2.55;;;;;;;;;;5021970;28;20112;-73
2023/09/29 06:57:26;;;;;;;8.33;2.90;;;;;;;;;;5028256;28;20439;-73
2023/09/29 06:59:51;;;;;;;9.13;3.10;;;;;;;;;;5032304;28;20034;-73
2023/09/29 07:02:17;;;;;;;5.70;2.47;;;;;;;;;;5031002;28;20090;-73
2023/09/29 07:04:42;;;;;;;9.98;2.50;;;;;;;;;;5029801;28;20070;-73
2023/09/29 07:07:07;;;;;;;4.83;2.30;;;;;;;;;;5030720;28;20465;-73
2023/09/29 07:09:32;;;;;;;9.90;2.72;;;;;;;;;;5030413;28;20276;-73
2023/09/29 07:11:58;;;;;;;4.73;2.30;;;;;;;;;;5027832;28;20115;-73
2023/09/29 07:14:23;;;;;;;5.55;2.70;;;;;;;;;;5031151;28;20264;-73
2023/09/29 07:16:52;;;;;;;6.63;2.50;;;;;;;;;;5034554;28;20024;-73
2023/09/29 07:19:17;;;;;;;7.68;2.55;;;;;;;;;;5029554;28;20303;-73
2023/09/29 07:21:43;;;;;;;5.57;2.83;;;;;;;;;;5025351;28;20026;-73
2023/09/29 07:24:08;;;;;;;4.43;2.17;;;;;;;;;;5033132;28;20075;-73
2023/09/29 07:26:33;;;;;;;5.20;2.17;;;;;;;;;;5032503;28;20036;-73
2023/09/29 07:29:01;;;;;;;9.45;2.63;;;;;;;;;;5029692;28;20489;-73
2023/09/29 07:31:32;;;;;;;6.57;1.83;;;;;;;;;;5032188;28;20060;-73
2023/09/29 07:33:58;;;;;;;4.55;1.92;;;;;;;;;;5027485;28;20385;-73
2023/09/29 07:36:23;;;;;;;4.57;2.63;;;;;;;;;;5021731;28;20431;-74
2023/09/29 07:38:48;;;;;;;4.27;2.70;;;;;;;;;;5027108;28;20523;-73
2023/09/29 07:41:13;;;;;;;3.28;1.90;;;;;;;;;;5023800;28;20278;-73
2023/09/29 07:43:40;;;;;;;3.57;2.27;;;;;;;;;;5024686;28;20677;-73
2023/09/29 07:46:05;;;;;;;12.35;2.42;;;;;;;;;;5022323;28;20662;-74
2023/09/29 07:48:31;;;;;;;3.13;1.30;;;;;;;;;;5028391;28;20014;-74
2023/09/29 07:50:56;;;;;;;7.15;3.28;;;;;;;;;;5022510;28;20041;-73
2023/09/29 07:53:21;;;;;;;5.00;1.53;;;;;;;;;;5021196;28;20034;-73
2023/09/29 07:55:46;;;;;;;8.00;2.50;;;;;;;;;;5022120;28;20022;-73
2023/09/29 07:58:11;;;;;;;5.77;2.10;;;;;;;;;;5026457;28;20033;-74
2023/09/29 08:00:36;;;;;;;6.80;1.93;;;;;;;;;;5024220;28;20045;-74
2023/09/29 08:03:02;;;;;;;8.03;2.80;;;;;;;;;;5026442;28;20044;-74
2023/09/29 08:05:27;;;;;;;1.48;1.05;;;;;;;;;;5025112;28;20268;-74
2023/09/29 08:07:53;;;;;;;4.67;2.27;;;;;;;;;;5024318;28;20025;-74
2023/09/29 08:10:18;;;;;;;4.13;2.20;;;;;;;;;;5022605;28;20288;-74
2023/09/29 08:12:43;;;;;;;6.23;2.73;;;;;;;;;;5021526;28;20377;-74
2023/09/29 08:15:11;;;;;;;5.80;2.30;;;;;;;;;;5019151;28;20326;-74
2023/09/29 08:17:36;;;;;;;6.60;2.85;;;;;;;;;;5023510;28;20028;-74
2023/09/29 08:20:02;;;;;;;6.22;1.98;;;;;;;;;;5025577;28;20017;-73
2023/09/29 08:22:27;;;;;;;5.28;2.38;;;;;;;;;;5022422;28;20010;-74
2023/09/29 08:24:52;;;;;;;4.00;1.53;;;;;;;;;;5030299;28;20040;-74
2023/09/29 08:27:17;;;;;;;4.07;2.00;;;;;;;;;;5023081;28;20283;-73
2023/09/29 08:29:43;;;;;;;5.43;2.13;;;;;;;;;;5029467;28;20617;-73
2023/09/29 08:32:08;;;;;;;6.27;1.90;;;;;;;;;;5023898;28;20276;-73
2023/09/29 08:34:34;;;;;;;7.07;1.87;;;;;;;;;;5022344;28;20025;-73
2023/09/29 08:36:59;;;;;;;5.55;2.53;;;;;;;;;;5024890;28;20485;-74
2023/09/29 08:39:25;;;;;;;6.65;2.47;;;;;;;;;;5022300;28;20017;-73
2023/09/29 08:41:59;;;;;;;7.32;1.75;;;;;;;;;;5027629;28;20415;-74
2023/09/29 08:44:26;;;;;;;7.82;3.22;;;;;;;;;;5028502;28;20669;-73
2023/09/29 08:46:52;;;;;;;2.53;1.52;;;;;;;;;;5021281;28;20033;-73
2023/09/29 08:49:19;;;;;;;2.67;1.80;;;;;;;;;;5018650;28;20029;-73
2023/09/29 08:51:46;;;;;;;6.95;1.92;;;;;;;;;;5020216;28;20076;-73
2023/09/29 08:54:11;;;;;;;4.20;2.15;;;;;;;;;;5024648;28;20476;-73
2023/09/29 08:56:37;;;;;;;5.72;3.03;;;;;;;;;;5023142;28;20025;-74
2023/09/29 08:59:03;;;;;;;3.60;1.92;;;;;;;;;;5024840;28;20030;-74
2023/09/29 09:01:30;;;;;;;3.85;2.50;;;;;;;;;;5015054;28;20022;-74
2023/09/29 09:03:55;;;;;;;6.25;1.70;;;;;;;;;;5021200;28;20140;-73
2023/09/29 09:06:21;;;;;;;7.50;3.23;;;;;;;;;;5023660;28;20124;-73
2023/09/29 09:08:46;;;;;;;3.10;1.90;;;;;;;;;;5025616;28;20274;-73
2023/09/29 09:11:12;;;;;;;6.25;2.78;;;;;;;;;;5031830;28;20060;-73
2023/09/29 09:13:37;;;;;;;2.47;1.50;;;;;;;;;;5031851;28;20094;-73
2023/09/29 09:16:02;;;;;;;8.03;2.87;;;;;;;;;;5026219;28;20333;-74
2023/09/29 09:18:27;;;;;;;2.58;1.63;;;;;;;;;;5018323;28;20397;-74
2023/09/29 09:20:53;;;;;;;5.50;2.80;;;;;;;;;;5023172;28;20029;-74
2023/09/29 09:23:19;;;;;;;3.45;2.42;;;;;;;;;;5018386;28;20314;-74
2023/09/29 09:25:44;;;;;;;6.47;2.95;;;;;;;;;;5025104;28;20116;-74
2023/09/29 09:28:17;;;;;;;11.05;3.00;;;;;;;;;;5020301;28;20536;-74
2023/09/29 09:30:42;;;;;;;10.73;2.90;;;;;;;;;;5017276;28;20025;-74
2023/09/29 09:33:15;;;;;;;8.27;2.90;;;;;;;;;;5021573;28;20439;-74
2023/09/29 09:35:42;;;;;;;9.20;2.90;;;;;;;;;;5028146;28;20025;-73
2023/09/29 09:38:07;;;;;;;4.20;2.50;;;;;;;;;;5026737;28;20021;-73
2023/09/29 09:40:33;;;;;;;9.05;3.28;;;;;;;;;;5021267;28;20367;-73
2023/09/29 09:43:03;;;;;;;8.48;3.30;;;;;;;;;;5018793;28;20014;-73
2023/09/29 09:45:37;;;;;;;5.88;2.40;;;;;;;;;;5021592;28;20052;-73
2023/09/29 09:48:04;;;;;;;18.00;2.75;;;;;;;;;;5021673;28;20061;-73
2023/09/29 09:50:30;;;;;;;5.32;2.47;;;;;;;;;;5014180;28;20025;-73
2023/09/29 09:52:56;;;;;;;8.25;2.90;;;;;;;;;;5029840;28;20053;-73
2023/09/29 09:55:27;;;;;;;7.78;2.80;;;;;;;;;;5026952;28;20103;-73
2023/09/29 09:57:53;;;;;;;11.25;3.13;;;;;;;;;;5024961;28;20447;-73
2023/09/29 10:00:19;;;;;;;6.88;3.28;;;;;;;;;;5019471;28;20009;-73
2023/09/29 10:02:51;;;;;;;8.25;4.25;;;;;;;;;;5022256;28;20714;-73
2023/09/29 10:05:22;;;;;;;5.88;2.70;;;;;;;;;;5022667;28;20024;-74
2023/09/29 10:07:52;;;;;;;8.70;2.63;;;;;;;;;;5018568;28;20049;-73
2023/09/29 10:10:31;;;;;;;5.15;2.80;;;;;;;;;;5015404;28;20037;-73
2023/09/29 10:12:57;;;;;;;12.52;3.28;;;;;;;;;;5024708;28;20025;-74
2023/09/29 10:15:22;;;;;;;15.00;3.47;;;;;;;;;;5028467;28;20040;-74
2023/09/29 10:17:47;;;;;;;8.82;3.60;;;;;;;;;;5023999;28;20443;-74
2023/09/29 10:20:23;;;;;;;8.30;2.58;;;;;;;;;;5026496;28;20022;-74
2023/09/29 10:22:54;;;;;;;9.25;2.50;;;;;;;;;;5025772;28;20028;-74
2023/09/29 10:25:20;;;;;;;11.95;2.65;;;;;;;;;;5025628;28;20032;-74
2023/09/29 10:27:51;;;;;;;7.13;2.35;;;;;;;;;;5026555;28;20039;-74
2023/09/29 10:30:17;;;;;;;5.32;2.20;;;;;;;;;;5030763;28;20079;-74
2023/09/29 10:32:43;;;;;;;9.20;2.03;;;;;;;;;;5032343;28;20028;-74
2023/09/29 10:35:18;;;;;;;13.43;2.30;;;;;;;;;;5034483;28;20029;-74
2023/09/29 10:37:45;;;;;;;4.63;2.03;;;;;;;;;;5028770;28;20093;-74
2023/09/29 10:40:20;;;;;;;5.63;1.75;;;;;;;;;;5027443;28;20021;-73
2023/09/29 10:42:46;;;;;;;8.13;2.75;;;;;;;;;;5023221;28;20017;-74
2023/09/29 10:45:11;;;;;;;8.65;2.60;;;;;;;;;;5022195;28;20035;-73
2023/09/29 10:47:36;;;;;;;13.07;2.33;;;;;;;;;;5016935;28;20431;-74
2023/09/29 10:50:05;;;;;;;7.70;3.35;;;;;;;;;;5012917;28;20276;-74
2023/09/29 10:52:30;;;;;;;11.00;3.42;;;;;;;;;;5013778;28;20159;-74
2023/09/29 10:54:58;;;;;;;14.10;5.05;;;;;;;;;;5013802;28;20123;-74
2023/09/29 10:57:25;;;;;;;10.25;3.45;;;;;;;;;;5021958;28;20048;-74
2023/09/29 10:59:51;;;;;;;12.05;3.80;;;;;;;;;;5028777;28;20091;-74
2023/09/29 11:02:17;;;;;;;14.65;4.68;;;;;;;;;;5019508;28;20075;-74
2023/09/29 11:04:45;;;;;;;19.73;6.13;;;;;;;;;;5028103;28;20021;-74
2023/09/29 11:07:10;;;;;;;17.25;4.88;;;;;;;;;;5031322;28;20427;-74
2023/09/29 11:09:37;;;;;;;17.17;5.05;;;;;;;;;;5030046;28;20030;-73
2023/09/29 11:12:03;;;;;;;18.48;4.60;;;;;;;;;;5028950;28;20025;-73
2023/09/29 11:14:37;;;;;;;15.63;5.40;;;;;;;;;;5029174;28;20039;-73
2023/09/29 11:17:02;;;;;;;17.75;5.45;;;;;;;;;;5027051;28;20028;-73
2023/09/29 11:19:31;;;;;;;16.23;4.80;;;;;;;;;;5025529;28;20025;-73
2023/09/29 11:21:59;;;;;;;18.88;5.30;;;;;;;;;;5025897;28;20075;-73
2023/09/29 11:24:24;;;;;;;14.10;5.30;;;;;;;;;;5028117;28;20021;-73
2023/09/29 11:26:55;;;;;;;19.30;6.40;;;;;;;;;;5025774;28;20021;-73
2023/09/29 11:29:21;;;;;;;23.80;7.13;;;;;;;;;;5027350;28;20625;-73
2023/09/29 11:31:47;;;;;;;21.42;7.38;;;;;;;;;;5029063;28;20017;-73
2023/09/29 11:34:15;;;;;;;28.38;8.25;;;;;;;;;;5027444;28;20021;-73
2023/09/29 11:36:40;;;;;;;22.05;7.22;;;;;;;;;;5030374;28;20017;-73
2023/09/29 11:39:07;;;;;;;29.40;7.70;;;;;;;;;;5028543;28;20035;-73
2023/09/29 11:41:33;;;;;;;32.85;8.95;;;;;;;;;;5027338;28;20040;-73
2023/09/29 11:43:58;;;;;;;22.95;7.07;;;;;;;;;;5027420;28;20025;-73
2023/09/29 11:46:24;;;;;;;24.03;7.80;;;;;;;;;;5029654;28;20471;-73
2023/09/29 11:48:49;;;;;;;23.67;8.57;;;;;;;;;;5031041;28;20032;-72
2023/09/29 11:51:14;;;;;;;19.50;6.80;;;;;;;;;;5025946;28;20506;-72
2023/09/29 11:53:40;;;;;;;27.90;10.90;;;;;;;;;;5028391;28;20753;-73
2023/09/29 11:56:07;;;;;;;22.77;8.13;;;;;;;;;;5026178;28;20359;-73
2023/09/29 11:58:33;;;;;;;18.92;8.00;;;;;;;;;;5029401;28;20191;-73
2023/09/29 12:01:00;;;;;;;22.05;7.47;;;;;;;;;;5026207;28;20098;-73
2023/09/29 12:03:27;;;;;;;20.60;6.70;;;;;;;;;;5022220;28;20025;-73
2023/09/29 12:05:53;;;;;;;25.25;7.00;;;;;;;;;;5025899;28;20021;-73
2023/09/29 12:08:19;;;;;;;20.67;7.35;;;;;;;;;;5026251;28;20083;-73
2023/09/29 12:10:44;;;;;;;21.55;7.10;;;;;;;;;;5026026;28;20032;-73
2023/09/29 12:13:15;;;;;;;26.88;6.47;;;;;;;;;;5027656;28;20017;-73
2023/09/29 12:15:41;;;;;;;21.17;5.70;;;;;;;;;;5026925;28;20160;-73
2023/09/29 12:18:06;;;;;;;18.80;5.10;;;;;;;;;;5025809;28;20128;-73
2023/09/29 12:20:31;;;;;;;19.35;5.95;;;;;;;;;;5026461;28;20022;-73
2023/09/29 12:23:00;;;;;;;17.50;6.57;;;;;;;;;;5027424;28;20025;-73
2023/09/29 12:25:26;;;;;;;13.93;5.65;;;;;;;;;;5028353;28;20845;-73
2023/09/29 12:27:51;;;;;;;18.17;5.60;;;;;;;;;;5026079;28;20120;-73
2023/09/29 12:30:17;;;;;;;20.40;5.93;;;;;;;;;;5024820;28;20307;-73
2023/09/29 12:32:43;;;;;;;18.60;5.65;;;;;;;;;;5020899;28;20315;-73
2023/09/29 12:35:12;;;;;;;17.63;5.10;;;;;;;;;;5026066;28;20021;-73
2023/09/29 12:37:37;;;;;;;15.48;4.50;;;;;;;;;;5024847;28;20546;-73
2023/09/29 12:40:03;;;;;;;16.50;4.85;;;;;;;;;;5026045;28;20018;-73
2023/09/29 12:42:28;;;;;;;12.77;4.78;;;;;;;;;;5023797;28;20109;-73
2023/09/29 12:44:53;;;;;;;18.53;4.70;;;;;;;;;;5022709;28;20025;-73
2023/09/29 12:47:19;;;;;;;13.57;4.67;;;;;;;;;;5026934;28;20112;-74
2023/09/29 12:49:44;;;;;;;12.47;4.83;;;;;;;;;;5027710;28;20047;-73
2023/09/29 12:52:09;;;;;;;13.47;4.17;;;;;;;;;;5026047;28;20272;-73
2023/09/29 12:54:38;;;;;;;15.23;4.55;;;;;;;;;;5025985;28;20025;-74
2023/09/29 12:57:03;;;;;;;16.25;5.15;;;;;;;;;;5026374;28;20071;-73
2023/09/29 12:59:29;;;;;;;16.13;4.23;;;;;;;;;;5026478;28;20531;-73
2023/09/29 13:01:54;;;;;;;15.52;4.32;;;;;;;;;;5028004;28;20909;-73
2023/09/29 13:04:25;;;;;;;18.20;4.80;;;;;;;;;;5024005;28;20096;-74
2023/09/29 13:06:50;;;;;;;17.10;4.78;;;;;;;;;;5020648;28;20115;-74
2023/09/29 13:09:15;;;;;;;11.88;4.28;;;;;;;;;;5025870;28;20104;-73
2023/09/29 13:11:44;;;;;;;15.00;4.35;;;;;;;;;;5025137;28;20025;-74
2023/09/29 13:14:09;;;;;;;12.93;3.70;;;;;;;;;;5027436;28;20017;-71
2023/09/29 13:16:34;;;;;;;17.27;4.77;;;;;;;;;;5025084;28;20036;-72
2023/09/29 13:18:59;;;;;;;16.25;5.07;;;;;;;;;;5024187;28;20315;-71
2023/09/29 13:21:25;;;;;;;13.73;3.10;;;;;;;;;;5021211;28;20492;-72
2023/09/29 13:23:50;;;;;;;15.18;4.20;;;;;;;;;;5025984;28;20036;-74
2023/09/29 13:26:15;;;;;;;9.00;2.97;;;;;;;;;;5026038;28;20029;-72
2023/09/29 13:28:40;;;;;;;18.97;4.17;;;;;;;;;;5029239;28;20028;-72
2023/09/29 13:31:05;;;;;;;18.20;4.50;;;;;;;;;;5029564;28;20310;-72
2023/09/29 13:33:31;;;;;;;15.33;4.30;;;;;;;;;;5027810;28;20026;-72
2023/09/29 13:35:56;;;;;;;17.23;5.03;;;;;;;;;;5027240;28;20033;-72
2023/09/29 13:38:21;;;;;;;23.93;5.20;;;;;;;;;;5028271;28;20025;-72
2023/09/29 13:40:52;;;;;;;18.58;5.20;;;;;;;;;;5024504;28;20272;-72
2023/09/29 13:43:17;;;;;;;16.83;5.07;;;;;;;;;;5029010;28;20284;-73
2023/09/29 13:45:42;;;;;;;11.60;3.95;;;;;;;;;;5027879;28;20014;-73
2023/09/29 13:48:07;;;;;;;11.70;4.37;;;;;;;;;;5032064;28;20037;-73
2023/09/29 13:50:33;;;;;;;12.77;4.57;;;;;;;;;;5031511;28;20704;-73
2023/09/29 13:52:59;;;;;;;12.15;3.83;;;;;;;;;;5028101;28;20036;-74
2023/09/29 13:55:24;;;;;;;13.60;3.53;;;;;;;;;;5030836;28;20100;-73
2023/09/29 13:57:49;;;;;;;14.27;3.97;;;;;;;;;;5030148;28;20345;-73
2023/09/29 14:00:18;;;;;;;13.80;3.90;;;;;;;;;;5028972;28;20040;-73
2023/09/29 14:02:43;;;;;;;13.07;3.80;;;;;;;;;;5027736;28;20463;-73
2023/09/29 14:05:08;;;;;;;10.82;3.83;;;;;;;;;;5028515;28;20096;-74
2023/09/29 14:07:33;;;;;;;13.40;3.63;;;;;;;;;;5029079;28;20044;-73
2023/09/29 14:09:58;;;;;;;10.50;3.60;;;;;;;;;;5026421;28;20014;-73
2023/09/29 14:12:24;;;;;;;9.37;2.47;;;;;;;;;;5026830;28;20040;-73
2023/09/29 14:14:49;;;;;;;7.27;2.43;;;;;;;;;;5027550;28;20072;-73
2023/09/29 14:17:14;;;;;;;8.90;2.70;;;;;;;;;;5028420;28;20480;-73
2023/09/29 14:19:39;;;;;;;6.20;2.72;;;;;;;;;;5023084;28;20017;-73
2023/09/29 14:22:05;;;;;;;7.00;2.67;;;;;;;;;;5029188;28;20071;-73
2023/09/29 14:24:31;;;;;;;8.70;1.90;;;;;;;;;;5025620;28;20026;-73
2023/09/29 14:26:56;;;;;;;8.18;2.10;;;;;;;;;;5026357;28;20687;-73
2023/09/29 14:29:21;;;;;;;6.57;1.90;;;;;;;;;;5027907;28;20595;-73
2023/09/29 14:31:47;;;;;;;9.47;2.67;;;;;;;;;;5025891;28;20045;-73